Terminal Aerodrome Forecast
Issued by NWS Wakefield, VA

Home | Current Version | Previous Version | Text Only | Print | Product List | Glossary On
Versions: 1 2 3 4 5 6 7 8 9 10 11 12 13 14 15 16 17 18 19 20 21 22 23 24 25 26 27 28 29 30 31 32 33 34 35
336
FTUS41 KAKQ 230143 AAA
TAFRIC
TAF AMD
KRIC 230143Z 2302/2324 05005KT P6SM OVC005
      TEMPO 2302/2304 2SM -DZ BR OVC003
     FM230400 06006KT 3SM SHRA BR OVC003
     FM230700 06011KT 1SM +SHRA BR OVC004
     FM231100 07011KT 2SM SHRA BR OVC002
     FM231700 11004KT 1SM -DZ OVC002
     FM232000 03004KT 4SM -SHRA BKN005
     FM232100 35005KT 5SM -SHRA OVC007=

USA.gov is the U.S. government's official web portal to all federal, state and local government web resources and services.